Weather reports worldwide

Advertisment
Vipiteno, Italy (16014): temperature & dewpoint: 15.01.2018 04:00:00 - 21.01.2018 04:00:00 (CET)Vipiteno, Italy (16014): wind speed: 15.01.2018 04:00:00 - 21.01.2018 04:00:00 (CET)Vipiteno, Italy (16014): wind direction: 15.01.2018 04:00:00 - 21.01.2018 04:00:00 (CET)Vipiteno, Italy (16014): precipitation: 15.01.2018 04:00:00 - 21.01.2018 04:00:00 (CET)
Date & Time tt [°C] td [°C] ff [km/h] ff [kn] dd rr [mm]
21.01.2018 04:00:00 - - - - - -
21.01.2018 03:00:00 -1,5 -2,9 0 0 N -
21.01.2018 02:00:00 -1,5 -2,9 2 1 E -
21.01.2018 01:00:00 -1,4 -2,9 4 2 SSW -
21.01.2018 00:00:00 -1,4 -2,9 5 3 ESE -
20.01.2018 23:00:00 -1,3 -2,8 5 3 SSE -
20.01.2018 22:00:00 -1,4 -3,0 4 2 S -
20.01.2018 21:00:00 -1,4 -3,8 4 2 SSW -
20.01.2018 20:00:00 -1,0 -4,6 2 1 W -
20.01.2018 19:00:00 -1,0 -4,9 4 2 NE 0,0
20.01.2018 18:00:00 -1,7 -6,5 2 1 W -
20.01.2018 17:00:00 -0,4 -5,9 2 1 E -
20.01.2018 16:00:00 0,3 -6,0 2 1 E -
20.01.2018 15:00:00 0,1 -6,6 0 0 N -
20.01.2018 14:00:00 1,2 -5,4 0 0 N -
20.01.2018 13:00:00 -0,1 -6,0 4 2 W 0,0
20.01.2018 12:00:00 -1,4 -4,4 2 1 N -
20.01.2018 11:00:00 -4,2 -6,2 5 3 N -
20.01.2018 10:00:00 -6,2 -7,7 2 1 S -
20.01.2018 09:00:00 -7,5 -9,2 2 1 W -
20.01.2018 08:00:00 -9,8 -11,7 2 1 NE -
20.01.2018 07:00:00 -7,0 -9,0 2 1 SW 0,0
20.01.2018 06:00:00 -7,3 -9,6 4 2 SW -
20.01.2018 05:00:00 -4,9 -6,9 4 2 N -
20.01.2018 04:00:00 -5,4 -7,6 5 3 W -
20.01.2018 03:00:00 -4,8 -6,8 2 1 SSW -
20.01.2018 02:00:00 -5,6 -7,9 4 2 W -
20.01.2018 01:00:00 -5,0 -7,5 4 2 NW -
20.01.2018 00:00:00 -4,6 -7,7 0 0 N -
19.01.2018 23:00:00 -3,5 -6,3 4 2 W -
19.01.2018 22:00:00 -3,7 -6,9 2 1 SSW -
19.01.2018 21:00:00 -2,3 -5,8 2 1 WNW -
19.01.2018 20:00:00 -1,7 -5,6 2 1 SW -
19.01.2018 19:00:00 0,0 -4,1 4 2 SSW -
19.01.2018 18:00:00 0,2 -4,3 4 2 W -
19.01.2018 17:00:00 1,3 -4,4 11 6 WNW -
19.01.2018 16:00:00 1,5 -3,6 8 4 WSW -
19.01.2018 15:00:00 2,5 -4,8 8 4 WSW -
19.01.2018 14:00:00 2,9 -4,2 16 9 NW -
19.01.2018 13:00:00 2,4 -2,2 18 10 WNW -
19.01.2018 12:00:00 -0,2 -1,7 4 2 N -
19.01.2018 11:00:00 -1,0 -2,5 8 4 N -
19.01.2018 10:00:00 -2,2 -3,6 0 0 N -
19.01.2018 09:00:00 -2,7 -4,1 4 2 NW -
19.01.2018 08:00:00 -3,6 -5,0 2 1 NNW -
19.01.2018 07:00:00 -4,8 -6,2 2 1 ENE 0,0
19.01.2018 06:00:00 -3,9 -5,3 2 1 NW -
19.01.2018 05:00:00 -3,9 -5,3 2 1 WNW -
19.01.2018 04:00:00 -4,0 -5,4 0 0 N -
19.01.2018 03:00:00 -4,8 -6,2 0 0 N -
19.01.2018 02:00:00 -5,0 -6,4 4 2 WSW -
19.01.2018 01:00:00 -6,3 -7,7 4 2 NNW 0,0
19.01.2018 00:00:00 -6,0 -7,4 2 1 NNW -
18.01.2018 23:00:00 -7,1 -8,5 2 1 W -
18.01.2018 22:00:00 -7,9 -9,6 2 1 NNW -
18.01.2018 21:00:00 -6,8 -8,5 2 1 S -
18.01.2018 20:00:00 -6,5 -8,2 2 1 SSW -
18.01.2018 19:00:00 -5,9 -7,9 2 1 SSW -
18.01.2018 18:00:00 -5,4 -7,9 2 1 NNW -
18.01.2018 17:00:00 -4,5 -7,5 0 0 N -
18.01.2018 16:00:00 -2,4 -5,6 2 1 SSE -
18.01.2018 15:00:00 -0,1 -4,1 2 1 S -
18.01.2018 14:00:00 0,4 -3,6 2 1 NNW -
18.01.2018 13:00:00 0,3 -1,6 0 0 N -
18.01.2018 12:00:00 -1,2 -2,7 4 2 N -
18.01.2018 11:00:00 -1,9 -3,3 0 0 N -
18.01.2018 10:00:00 -2,8 -4,2 2 1 NE -
18.01.2018 09:00:00 -3,9 -5,3 2 1 ESE -
18.01.2018 08:00:00 -4,0 -5,4 0 0 N -
18.01.2018 07:00:00 -4,3 -5,9 0 0 N 0,0
18.01.2018 06:00:00 -3,0 -4,4 0 0 N -
18.01.2018 05:00:00 -3,0 -4,6 0 0 N -
18.01.2018 04:00:00 -2,7 -4,3 0 0 N -
18.01.2018 03:00:00 -2,6 -4,3 4 2 SSW -
18.01.2018 02:00:00 -2,5 -4,4 8 4 SW -
18.01.2018 01:00:00 -2,4 -4,6 15 8 W 0,0
18.01.2018 00:00:00 -1,9 -4,9 18 10 WSW -
17.01.2018 23:00:00 -2,5 -5,0 16 9 W -
17.01.2018 22:00:00 -2,4 -5,1 18 10 WSW -
17.01.2018 21:00:00 -2,4 -5,1 21 11 W -
17.01.2018 20:00:00 -2,4 -5,4 18 10 W -
17.01.2018 19:00:00 -2,6 -5,5 15 8 SW 0,0
17.01.2018 18:00:00 -2,1 -6,0 15 8 WSW -
17.01.2018 17:00:00 -1,3 -6,9 11 6 WNW -
17.01.2018 16:00:00 -1,6 -5,9 13 7 SSE -
17.01.2018 15:00:00 -2,1 -5,5 9 5 W -
17.01.2018 14:00:00 0,2 -4,1 9 5 SW -
17.01.2018 13:00:00 -0,2 -4,9 18 10 NW 0,0
17.01.2018 12:00:00 0,4 -2,5 8 4 W -
17.01.2018 11:00:00 0,1 -1,4 4 2 SSE -
17.01.2018 10:00:00 -0,1 -1,6 2 1 WSW -
17.01.2018 09:00:00 -0,6 -2,1 5 3 WSW -
17.01.2018 08:00:00 -0,9 -2,4 8 4 WNW -
17.01.2018 07:00:00 -1,6 -3,0 5 3 WNW 0,0
17.01.2018 06:00:00 -1,3 -2,8 2 1 SE -
17.01.2018 05:00:00 -1,9 -3,3 4 2 WNW -
17.01.2018 04:00:00 -1,8 -3,2 2 1 S -
17.01.2018 03:00:00 -2,3 -3,7 4 2 SSW -
17.01.2018 02:00:00 -1,9 -3,3 4 2 NNW -
17.01.2018 01:00:00 -2,9 -4,3 0 0 N 0,0
17.01.2018 00:00:00 -1,3 -2,8 2 1 SSW -
16.01.2018 23:00:00 -1,4 -2,9 2 1 N -
16.01.2018 22:00:00 -1,3 -2,8 4 2 SE -
16.01.2018 21:00:00 -1,4 -2,9 2 1 S -
16.01.2018 20:00:00 -1,3 -2,8 2 1 E -
16.01.2018 19:00:00 -1,5 -2,9 0 0 N 0,0
16.01.2018 18:00:00 -1,3 -2,8 0 0 N -
16.01.2018 17:00:00 -1,2 -2,7 2 1 ENE -
16.01.2018 16:00:00 -1,1 -2,6 2 1 N -
16.01.2018 15:00:00 -0,9 -2,4 2 1 SE -
16.01.2018 14:00:00 -0,9 -2,4 0 0 N -
16.01.2018 13:00:00 -1,0 -2,5 0 0 N 0,0
16.01.2018 12:00:00 -1,3 -2,8 0 0 N -
16.01.2018 11:00:00 -1,6 -3,0 0 0 N -
16.01.2018 10:00:00 -2,2 -3,6 0 0 N -
16.01.2018 09:00:00 -2,7 -4,1 0 0 N -
16.01.2018 08:00:00 -2,9 -4,3 0 0 N -
16.01.2018 07:00:00 -2,9 -4,3 0 0 N 0,0
16.01.2018 06:00:00 -2,8 -4,4 2 1 SSE -
16.01.2018 05:00:00 -2,9 -4,5 2 1 NNE -
16.01.2018 04:00:00 -2,8 -4,5 0 0 N -
16.01.2018 03:00:00 -2,9 -4,8 0 0 N -
16.01.2018 02:00:00 -2,8 -4,8 0 0 N -
16.01.2018 01:00:00 -2,7 -4,9 2 1 NNE 0,0
16.01.2018 00:00:00 -2,5 -5,0 2 1 WSW -
15.01.2018 23:00:00 -3,1 -5,3 4 2 W -
15.01.2018 22:00:00 -3,9 -6,1 2 1 N -
15.01.2018 21:00:00 -4,1 -6,4 2 1 SE -
15.01.2018 20:00:00 -4,5 -7,1 2 1 ENE -
15.01.2018 19:00:00 -4,2 -7,5 0 0 N 0,0
15.01.2018 18:00:00 -3,6 -7,3 0 0 N -
15.01.2018 17:00:00 -2,7 -6,4 0 0 N -
15.01.2018 16:00:00 -2,6 -6,7 4 2 E -
15.01.2018 15:00:00 -2,7 -7,1 0 0 N -
15.01.2018 14:00:00 -0,2 -4,9 0 0 N -
15.01.2018 13:00:00 -1,7 -4,7 0 0 N 0,0
15.01.2018 12:00:00 -3,9 -5,9 5 3 NNE -
15.01.2018 11:00:00 -5,3 -7,0 0 0 N -
15.01.2018 10:00:00 -6,9 -8,6 0 0 N -
15.01.2018 09:00:00 -10,2 -12,1 0 0 N -
15.01.2018 08:00:00 -9,9 -12,0 0 0 N -
15.01.2018 07:00:00 -9,4 -11,6 2 1 WNW 0,0
15.01.2018 06:00:00 -8,4 -10,7 2 1 W -
15.01.2018 05:00:00 -8,9 -11,5 0 0 N -
15.01.2018 04:00:00 -6,9 -9,3 2 1 WNW -

tt = temperature
td = dewpoint
ff = wind speed
dd = wind direction
rr = precipitation

Next stations